createdAt,value
2022-10-23T00:00:45.529Z,7.45
2022-10-23T00:03:34.194Z,7.30
2022-10-23T00:06:20.667Z,6.63
2022-10-23T00:09:08.506Z,6.07
2022-10-23T00:11:54.601Z,5.40
2022-10-23T00:14:41.052Z,7.07
2022-10-23T00:17:27.146Z,6.65
2022-10-23T00:20:17.381Z,6.43
2022-10-23T00:23:14.745Z,7.60
2022-10-23T00:26:01.376Z,8.20
2022-10-23T00:28:49.698Z,7.28
2022-10-23T00:31:38.375Z,7.72
2022-10-23T00:34:24.858Z,7.57
2022-10-23T00:37:11.404Z,7.45
2022-10-23T00:39:57.853Z,8.50
2022-10-23T00:42:44.726Z,8.65
2022-10-23T00:45:33.515Z,8.07
2022-10-23T00:48:19.974Z,10.10
2022-10-23T00:51:06.053Z,9.07
2022-10-23T00:54:12.708Z,8.13
2022-10-23T00:57:08.525Z,8.75
2022-10-23T00:59:54.897Z,7.57
2022-10-23T01:02:41.445Z,8.20
2022-10-23T01:05:33.755Z,7.80
2022-10-23T01:08:20.337Z,9.00
2022-10-23T01:11:16.338Z,9.05
2022-10-23T01:14:23.584Z,9.15
2022-10-23T01:17:22.612Z,8.52
2022-10-23T01:20:27.575Z,8.38
2022-10-23T01:23:29.457Z,6.75
2022-10-23T01:26:36.358Z,8.38
2022-10-23T01:29:31.891Z,7.45
2022-10-23T01:32:22.159Z,7.88
2022-10-23T01:35:12.069Z,6.90
2022-10-23T01:38:18.190Z,6.03
2022-10-23T01:41:26.718Z,5.43
2022-10-23T01:44:20.178Z,6.30
2022-10-23T01:47:09.512Z,5.90
2022-10-23T01:50:11.484Z,5.75
2022-10-23T01:53:00.338Z,4.75
2022-10-23T01:55:49.903Z,5.60
2022-10-23T01:58:44.275Z,5.95
2022-10-23T02:01:31.703Z,5.88
2022-10-23T02:04:24.121Z,5.38
2022-10-23T02:07:10.194Z,5.78
2022-10-23T02:09:57.058Z,5.20
2022-10-23T02:12:55.939Z,4.57
2022-10-23T02:15:46.115Z,5.13
2022-10-23T02:18:45.138Z,4.55
2022-10-23T02:21:34.406Z,5.47
2022-10-23T02:24:26.655Z,4.60
2022-10-23T02:27:19.810Z,5.20
2022-10-23T02:30:12.645Z,4.15
2022-10-23T02:33:00.911Z,4.78
2022-10-23T02:35:47.651Z,4.95
2022-10-23T02:38:46.730Z,5.15
2022-10-23T02:41:44.571Z,4.60
2022-10-23T02:44:39.697Z,4.20
2022-10-23T02:47:46.198Z,4.55
2022-10-23T02:50:35.378Z,4.57
2022-10-23T02:53:30.761Z,5.10
2022-10-23T02:56:36.597Z,4.05
2022-10-23T02:59:35.597Z,4.32
2022-10-23T03:02:25.589Z,4.82
2022-10-23T03:05:14.071Z,4.47
2022-10-23T03:08:00.533Z,4.30
2022-10-23T03:10:46.581Z,4.10
2022-10-23T03:13:32.738Z,4.13
2022-10-23T03:16:18.828Z,4.68
2022-10-23T03:24:48.931Z,4.88
2022-10-23T03:27:35.671Z,4.78
2022-10-23T03:30:24.178Z,5.40
2022-10-23T03:33:13.872Z,5.05
2022-10-23T03:35:59.818Z,5.60
2022-10-23T03:38:46.027Z,5.15
2022-10-23T03:41:32.588Z,5.00
2022-10-23T03:44:19.163Z,5.68
2022-10-23T03:47:05.519Z,5.20
2022-10-23T03:49:51.567Z,5.15
2022-10-23T03:52:37.766Z,5.70
2022-10-23T03:55:25.841Z,3.45
2022-10-23T03:58:12.625Z,5.93
2022-10-23T04:00:58.951Z,4.75
2022-10-23T04:03:46.919Z,4.93
2022-10-23T04:06:36.087Z,5.03
2022-10-23T04:09:23.471Z,4.70
2022-10-23T04:12:09.768Z,5.28
2022-10-23T04:14:55.651Z,4.03
2022-10-23T04:17:41.722Z,7.22
2022-10-23T04:20:50.090Z,6.28
2022-10-23T04:23:36.689Z,5.93
2022-10-23T04:26:24.387Z,6.20
2022-10-23T04:29:10.587Z,6.72
2022-10-23T04:31:56.782Z,4.97
2022-10-23T04:34:43.026Z,6.00
2022-10-23T04:37:29.345Z,6.20
2022-10-23T04:40:15.811Z,5.88
2022-10-23T04:43:02.338Z,5.95
2022-10-23T04:45:52.353Z,6.60
2022-10-23T04:48:56.860Z,7.75
2022-10-23T04:52:03.089Z,6.43
2022-10-23T04:55:06.991Z,7.75
2022-10-23T04:58:03.717Z,7.75
2022-10-23T05:00:50.494Z,7.88
2022-10-23T05:03:42.623Z,8.38
2022-10-23T05:06:29.026Z,8.10
2022-10-23T05:09:30.538Z,8.20
2022-10-23T05:12:31.093Z,10.60
2022-10-23T05:15:17.395Z,5.07
2022-10-23T05:18:09.414Z,9.02
2022-10-23T05:20:59.160Z,9.40
2022-10-23T05:23:46.228Z,9.13
2022-10-23T05:26:33.192Z,9.52
2022-10-23T05:29:25.122Z,10.70
2022-10-23T05:32:14.616Z,10.30
2022-10-23T05:35:03.370Z,9.35
2022-10-23T05:37:51.181Z,11.50
2022-10-23T05:40:40.757Z,10.85
2022-10-23T05:43:32.176Z,8.95
2022-10-23T05:46:25.455Z,10.80
2022-10-23T05:49:30.334Z,17.10
2022-10-23T05:52:35.075Z,12.65
2022-10-23T05:55:23.673Z,8.90
2022-10-23T05:58:19.586Z,7.35
2022-10-23T06:01:24.014Z,6.63
2022-10-23T06:04:18.361Z,6.40
2022-10-23T06:07:30.120Z,6.30
2022-10-23T06:13:08.573Z,5.13
2022-10-23T06:15:55.756Z,5.72
2022-10-23T06:18:46.056Z,5.20
2022-10-23T06:21:39.361Z,5.68
2022-10-23T06:24:26.013Z,5.18
2022-10-23T06:27:17.823Z,6.57
2022-10-23T06:30:07.357Z,6.55
2022-10-23T06:32:54.067Z,5.78
2022-10-23T06:35:40.269Z,6.40
2022-10-23T06:38:26.453Z,5.90
2022-10-23T06:41:20.115Z,8.00
2022-10-23T06:44:11.747Z,7.70
2022-10-23T06:47:02.344Z,8.38
2022-10-23T06:50:11.715Z,9.98
2022-10-23T06:53:03.833Z,9.10
2022-10-23T06:55:52.890Z,10.25
2022-10-23T07:01:35.304Z,9.55
2022-10-23T07:04:21.823Z,9.43
2022-10-23T07:07:11.060Z,10.20
2022-10-23T07:10:04.184Z,9.48
2022-10-23T07:13:01.296Z,13.48
2022-10-23T07:16:12.519Z,8.10
2022-10-23T07:19:01.181Z,11.15
2022-10-23T07:21:48.453Z,9.05
2022-10-23T07:24:52.492Z,12.25
2022-10-23T07:27:44.067Z,10.63
2022-10-23T07:30:36.428Z,14.10
2022-10-23T07:33:23.361Z,12.60
2022-10-23T07:36:18.962Z,12.35
2022-10-23T07:39:05.358Z,12.32
2022-10-23T07:41:55.575Z,12.43
2022-10-23T07:44:42.028Z,17.15
2022-10-23T07:47:28.251Z,13.98
2022-10-23T07:50:14.539Z,8.60
2022-10-23T07:53:00.700Z,8.00
2022-10-23T07:55:58.297Z,8.38
2022-10-23T07:58:47.665Z,8.48
2022-10-23T08:01:37.960Z,7.18
2022-10-23T08:04:25.126Z,6.18
2022-10-23T08:07:40.822Z,7.57
2022-10-23T08:10:27.776Z,8.43
2022-10-23T08:13:14.354Z,6.85
2022-10-23T08:16:12.481Z,7.22
2022-10-23T08:22:13.222Z,8.77
2022-10-23T08:25:00.208Z,7.63
2022-10-23T08:27:46.712Z,5.50
2022-10-23T08:30:34.059Z,6.78
2022-10-23T08:33:20.394Z,6.32
2022-10-23T08:36:15.463Z,6.15
2022-10-23T08:39:02.519Z,6.20
2022-10-23T08:41:51.501Z,6.07
2022-10-23T08:44:50.388Z,5.38
2022-10-23T08:47:41.360Z,5.90
2022-10-23T08:50:49.467Z,5.00
2022-10-23T08:53:40.339Z,4.47
2022-10-23T08:56:32.939Z,5.07
2022-10-23T08:59:28.183Z,5.35
2022-10-23T09:02:22.560Z,6.45
2022-10-23T09:05:16.965Z,3.97
2022-10-23T09:08:15.979Z,4.03
2022-10-23T09:11:04.473Z,2.80
2022-10-23T09:13:55.698Z,3.30
2022-10-23T09:16:44.313Z,3.30
2022-10-23T09:19:32.901Z,3.15
2022-10-23T09:22:20.472Z,2.13
2022-10-23T09:25:17.669Z,3.03
2022-10-23T09:28:05.517Z,2.75
2022-10-23T09:30:52.473Z,2.67
2022-10-23T09:33:39.847Z,3.85
2022-10-23T09:36:29.169Z,3.05
2022-10-23T09:39:35.954Z,3.10
2022-10-23T09:42:23.773Z,4.75
2022-10-23T09:45:21.369Z,3.85
2022-10-23T09:48:15.894Z,4.05
2022-10-23T09:51:15.721Z,6.57
2022-10-23T09:54:01.812Z,3.80
2022-10-23T09:59:34.910Z,9.95
2022-10-23T10:02:27.198Z,4.18
2022-10-23T10:05:41.884Z,9.90
2022-10-23T10:08:39.553Z,5.97
2022-10-23T10:11:29.761Z,4.25
2022-10-23T10:14:25.201Z,2.92
2022-10-23T10:17:20.675Z,3.65
2022-10-23T10:20:21.032Z,3.88
2022-10-23T10:26:00.345Z,9.75
2022-10-23T10:28:53.963Z,10.50
2022-10-23T10:31:53.072Z,2.92
2022-10-23T10:34:43.273Z,3.70
2022-10-23T10:37:55.699Z,8.38
2022-10-23T10:40:44.713Z,4.97
2022-10-23T10:43:30.670Z,8.82
2022-10-23T10:46:36.410Z,13.82
2022-10-23T10:49:40.676Z,4.15
2022-10-23T10:52:49.977Z,3.13
2022-10-23T10:55:42.349Z,3.53
2022-10-23T10:58:35.951Z,3.10
2022-10-23T11:01:26.615Z,3.35
2022-10-23T11:04:21.640Z,2.88
2022-10-23T11:07:10.606Z,3.70
2022-10-23T11:09:59.055Z,3.53
2022-10-23T11:12:46.332Z,4.22
2022-10-23T11:15:38.482Z,2.65
2022-10-23T11:21:10.423Z,3.60
2022-10-23T11:24:02.773Z,3.60
2022-10-23T11:27:07.803Z,3.17
2022-10-23T11:29:59.982Z,2.42
2022-10-23T11:32:47.579Z,2.88
2022-10-23T11:35:33.345Z,4.55
2022-10-23T11:38:23.921Z,9.15
2022-10-23T11:41:27.351Z,4.40
2022-10-23T11:44:25.537Z,3.90
2022-10-23T11:47:36.321Z,4.25
2022-10-23T11:50:29.370Z,4.88
2022-10-23T11:53:33.538Z,4.88
2022-10-23T11:56:19.778Z,4.82
2022-10-23T11:59:18.210Z,4.85
2022-10-23T12:02:19.372Z,13.98
2022-10-23T12:05:08.949Z,6.78
2022-10-23T12:07:57.092Z,3.30
2022-10-23T12:10:46.955Z,4.38
2022-10-23T12:13:39.135Z,6.85
2022-10-23T12:16:34.606Z,6.85
2022-10-23T12:19:22.144Z,7.68
2022-10-23T12:22:08.985Z,4.95
2022-10-23T12:24:54.921Z,3.67
2022-10-23T12:27:49.411Z,3.90
2022-10-23T12:30:44.339Z,4.75
2022-10-23T12:33:45.906Z,3.28
2022-10-23T12:36:52.249Z,4.13
2022-10-23T12:39:39.302Z,3.58
2022-10-23T12:42:52.011Z,5.40
2022-10-23T12:45:40.283Z,4.25
2022-10-23T12:48:26.441Z,3.33
2022-10-23T12:51:16.468Z,3.30
2022-10-23T12:54:03.041Z,3.22
2022-10-23T12:56:53.554Z,5.55
2022-10-23T12:59:45.041Z,3.13
2022-10-23T13:02:33.681Z,4.53
2022-10-23T13:05:21.997Z,3.85
2022-10-23T13:08:41.514Z,2.63
2022-10-23T13:12:04.821Z,3.38
2022-10-23T13:14:56.197Z,3.55
2022-10-23T13:17:44.654Z,4.37
2022-10-23T13:20:32.191Z,3.90
2022-10-23T13:23:32.487Z,3.78
2022-10-23T13:26:31.034Z,5.35
2022-10-23T13:29:18.043Z,3.30
2022-10-23T13:32:23.110Z,3.63
2022-10-23T13:35:22.109Z,5.20
2022-10-23T13:38:09.921Z,5.85
2022-10-23T13:40:58.493Z,4.78
2022-10-23T13:43:45.628Z,5.60
2022-10-23T13:46:34.779Z,3.60
2022-10-23T13:49:21.008Z,3.90
2022-10-23T13:52:10.602Z,4.68
2022-10-23T13:54:56.908Z,6.93
2022-10-23T13:57:45.666Z,4.55
2022-10-23T14:00:33.404Z,5.55
2022-10-23T14:03:24.676Z,6.40
2022-10-23T14:06:11.652Z,6.43
2022-10-23T14:08:59.890Z,4.07
2022-10-23T14:11:46.825Z,3.88
2022-10-23T14:14:35.513Z,3.90
2022-10-23T14:17:22.034Z,22.08
2022-10-23T14:20:08.602Z,11.43
2022-10-23T14:22:55.253Z,4.25
2022-10-23T14:25:41.588Z,3.47
2022-10-23T14:28:27.785Z,3.50
2022-10-23T14:31:17.464Z,3.13
2022-10-23T14:34:03.662Z,3.25
2022-10-23T14:36:56.659Z,4.18
2022-10-23T14:39:50.338Z,3.30
2022-10-23T14:42:36.780Z,3.05
2022-10-23T14:45:23.079Z,2.80
2022-10-23T14:48:09.202Z,2.80
2022-10-23T14:50:55.667Z,2.30
2022-10-23T14:53:41.758Z,3.08
2022-10-23T14:56:28.540Z,2.67
2022-10-23T14:59:15.296Z,2.78
2022-10-23T15:02:01.432Z,2.88
2022-10-23T15:04:47.486Z,3.72
2022-10-23T15:07:33.877Z,4.13
2022-10-23T15:10:20.274Z,5.32
2022-10-23T15:13:06.520Z,4.22
2022-10-23T15:16:01.491Z,5.40
2022-10-23T15:18:47.647Z,3.55
2022-10-23T15:21:34.204Z,4.72
2022-10-23T15:24:23.526Z,4.75
2022-10-23T15:27:10.749Z,4.00
2022-10-23T15:29:56.702Z,3.50
2022-10-23T15:32:43.484Z,3.15
2022-10-23T15:35:32.345Z,3.58
2022-10-23T15:38:19.408Z,3.22
2022-10-23T15:41:15.131Z,3.60
2022-10-23T15:44:07.052Z,3.53
2022-10-23T15:47:03.074Z,4.20
2022-10-23T15:49:49.698Z,3.75
2022-10-23T15:52:36.999Z,3.65
2022-10-23T15:55:27.150Z,4.03
2022-10-23T15:58:16.195Z,3.47
2022-10-23T16:01:21.572Z,4.93
2022-10-23T16:04:07.621Z,5.55
2022-10-23T16:06:53.902Z,6.80
2022-10-23T16:09:41.438Z,11.95
2022-10-23T16:12:27.639Z,18.77
2022-10-23T16:15:13.874Z,8.50
2022-10-23T16:18:00.494Z,9.25
2022-10-23T16:21:16.965Z,9.00
2022-10-23T16:24:05.113Z,7.70
2022-10-23T16:26:53.918Z,6.57
2022-10-23T16:29:40.235Z,7.85
2022-10-23T16:32:26.422Z,7.80
2022-10-23T16:35:13.229Z,7.15
2022-10-23T16:38:14.062Z,7.00
2022-10-23T16:41:03.649Z,6.60
2022-10-23T16:44:19.051Z,7.18
2022-10-23T16:47:22.054Z,8.63
2022-10-23T16:50:08.526Z,7.95
2022-10-23T16:52:55.819Z,7.95
2022-10-23T16:55:43.258Z,7.03
2022-10-23T16:58:32.336Z,7.30
2022-10-23T17:01:23.882Z,6.20
2022-10-23T17:04:11.407Z,7.18
2022-10-23T17:06:57.672Z,6.88
2022-10-23T17:09:44.896Z,8.05
2022-10-23T17:12:31.056Z,11.10
2022-10-23T17:15:17.799Z,11.50
2022-10-23T17:18:04.269Z,10.45
2022-10-23T17:20:59.827Z,10.57
2022-10-23T17:23:46.555Z,12.15
2022-10-23T17:26:32.600Z,12.60
2022-10-23T17:29:19.576Z,11.82
2022-10-23T17:32:06.239Z,12.40
2022-10-23T17:34:52.421Z,13.57
2022-10-23T17:37:38.490Z,11.63
2022-10-23T17:40:25.847Z,13.65
2022-10-23T17:43:13.071Z,10.50
2022-10-23T17:45:59.057Z,10.32
2022-10-23T17:49:04.176Z,9.90
2022-10-23T17:51:51.910Z,11.77
2022-10-23T17:54:38.445Z,10.07
2022-10-23T17:57:28.472Z,8.07
2022-10-23T18:00:14.930Z,9.75
2022-10-23T18:03:02.203Z,9.50
2022-10-23T18:05:48.806Z,9.80
2022-10-23T18:08:35.501Z,10.52
2022-10-23T18:11:23.180Z,9.35
2022-10-23T18:14:29.563Z,8.02
2022-10-23T18:17:16.226Z,8.82
2022-10-23T18:20:02.523Z,7.32
2022-10-23T18:22:53.135Z,7.68
2022-10-23T18:25:42.447Z,7.35
2022-10-23T18:28:28.888Z,8.52
2022-10-23T18:31:16.052Z,9.95
2022-10-23T18:34:04.397Z,9.27
2022-10-23T18:36:54.489Z,8.82
2022-10-23T18:39:40.511Z,7.75
2022-10-23T18:42:26.804Z,8.40
2022-10-23T18:45:13.590Z,8.20
2022-10-23T18:48:00.026Z,7.70
2022-10-23T18:50:46.122Z,8.00
2022-10-23T18:53:32.362Z,7.35
2022-10-23T18:56:23.693Z,7.97
2022-10-23T18:59:17.395Z,14.97
2022-10-23T19:02:03.900Z,12.40
2022-10-23T19:04:50.910Z,10.50
2022-10-23T19:07:45.441Z,9.23
2022-10-23T19:10:33.291Z,22.23
2022-10-23T19:13:19.430Z,12.95
2022-10-23T19:16:24.176Z,9.95
2022-10-23T19:19:21.879Z,15.50
2022-10-23T19:22:08.748Z,12.95
2022-10-23T19:25:01.774Z,8.20
2022-10-23T19:27:52.248Z,10.82
2022-10-23T19:30:38.368Z,10.23
2022-10-23T19:33:24.818Z,7.07
2022-10-23T19:36:14.339Z,6.40
2022-10-23T19:39:00.950Z,7.97
2022-10-23T19:41:47.633Z,9.07
2022-10-23T19:44:37.990Z,9.82
2022-10-23T19:47:24.995Z,13.55
2022-10-23T19:50:12.074Z,9.63
2022-10-23T19:52:59.962Z,6.72
2022-10-23T19:55:46.347Z,6.55
2022-10-23T19:58:33.273Z,7.03
2022-10-23T20:01:25.154Z,6.60
2022-10-23T20:04:11.437Z,5.88
2022-10-23T20:06:58.058Z,6.78
2022-10-23T20:10:05.506Z,6.40
2022-10-23T20:12:57.084Z,12.60
2022-10-23T20:15:56.326Z,8.10
2022-10-23T20:18:42.839Z,6.78
2022-10-23T20:21:29.577Z,6.97
2022-10-23T20:24:16.588Z,5.80
2022-10-23T20:27:02.660Z,6.53
2022-10-23T20:29:49.194Z,6.20
2022-10-23T20:32:35.988Z,6.57
2022-10-23T20:35:25.435Z,4.75
2022-10-23T20:38:12.869Z,3.55
2022-10-23T20:41:00.815Z,5.10
2022-10-23T20:43:47.006Z,5.57
2022-10-23T20:46:34.913Z,5.40
2022-10-23T20:49:22.162Z,6.25
2022-10-23T20:52:08.827Z,6.78
2022-10-23T20:54:55.154Z,5.30
2022-10-23T20:57:41.665Z,5.15
2022-10-23T21:00:29.854Z,4.50
2022-10-23T21:03:16.274Z,4.75
2022-10-23T21:06:07.544Z,3.83
2022-10-23T21:09:01.066Z,4.80
2022-10-23T21:11:47.225Z,4.13
2022-10-23T21:14:33.660Z,3.72
2022-10-23T21:17:20.162Z,4.03
2022-10-23T21:20:08.775Z,5.05
2022-10-23T21:22:55.663Z,4.82
2022-10-23T21:28:32.445Z,4.90
2022-10-23T21:31:19.248Z,4.78
2022-10-23T21:34:06.606Z,5.13
2022-10-23T21:37:13.115Z,4.65
2022-10-23T21:39:58.773Z,5.82
2022-10-23T21:42:44.944Z,6.07
2022-10-23T21:45:31.101Z,4.68
2022-10-23T21:48:17.428Z,5.07
2022-10-23T21:51:03.865Z,5.35
2022-10-23T21:53:53.621Z,5.13
2022-10-23T21:56:58.307Z,5.57
2022-10-23T21:59:44.951Z,5.38
2022-10-23T22:02:30.937Z,5.68
2022-10-23T22:05:16.973Z,5.13
2022-10-23T22:08:03.273Z,5.97
2022-10-23T22:10:49.506Z,5.88
2022-10-23T22:13:35.672Z,5.43
2022-10-23T22:16:22.041Z,2.80
2022-10-23T22:19:08.675Z,5.57
2022-10-23T22:21:55.202Z,5.35
2022-10-23T22:24:52.594Z,5.60
2022-10-23T22:27:38.935Z,4.88
2022-10-23T22:30:25.245Z,8.98
2022-10-23T22:33:11.733Z,6.82
2022-10-23T22:36:02.079Z,5.72
2022-10-23T22:38:51.158Z,8.20
2022-10-23T22:41:43.386Z,8.73
2022-10-23T22:44:30.121Z,9.15
2022-10-23T22:47:16.135Z,9.43
2022-10-23T22:50:08.416Z,9.48
2022-10-23T22:52:57.255Z,5.80
2022-10-23T22:55:43.444Z,4.22
2022-10-23T22:58:32.896Z,5.30
2022-10-23T23:01:21.542Z,5.78
2022-10-23T23:04:32.887Z,6.30
2022-10-23T23:07:14.309Z,5.80
2022-10-23T23:10:00.698Z,6.30
2022-10-23T23:12:46.787Z,4.88
2022-10-23T23:15:33.139Z,5.10
2022-10-23T23:18:19.402Z,4.93
2022-10-23T23:21:24.238Z,3.83
2022-10-23T23:24:11.202Z,3.30
2022-10-23T23:26:57.322Z,3.38
2022-10-23T23:29:43.350Z,3.95
2022-10-23T23:32:29.413Z,3.72
2022-10-23T23:35:15.887Z,3.70
2022-10-23T23:38:02.076Z,2.55
2022-10-23T23:40:52.482Z,3.22
2022-10-23T23:43:38.792Z,3.40
2022-10-23T23:46:25.551Z,3.63
2022-10-23T23:49:11.593Z,4.22
2022-10-23T23:51:57.733Z,2.53
2022-10-23T23:54:43.915Z,3.38
2022-10-23T23:57:29.983Z,2.03
